Time;durP1;ratioP1;P1;durP2;ratioP2;P2;SDS_P1;SDS_P2;PMS_P1;PMS_P2;Temp;Humidity;BMP_temperature;BMP_pressure;BME280_temperature;BME280_humidity;BME280_pressure;Samples;Min_cycle;Max_cycle;Signal;HPM_P1;HPM_P2
2022/01/03 00:02:16;;;;;;;;;;;10.60;99.90;;;;;;8420553;28;19935;-71
2022/01/03 00:06:21;;;;;;;;;;;10.60;99.90;;;;;;8428379;28;19982;-71
2022/01/03 00:10:22;;;;;;;;;;;10.60;99.90;;;;;;8423314;28;20483;-71
2022/01/03 00:14:26;;;;;;;;;;;10.60;99.90;;;;;;8405863;28;19967;-71
2022/01/03 00:18:27;;;;;;;;;;;10.60;99.90;;;;;;8421425;28;19928;-71
2022/01/03 00:22:32;;;;;;;;;;;10.50;99.90;;;;;;8425235;28;19928;-71
2022/01/03 00:26:35;;;;;;;;;;;10.50;99.90;;;;;;8407602;28;19931;-71
2022/01/03 00:30:40;;;;;;;;;;;10.50;99.90;;;;;;8428220;28;20372;-71
2022/01/03 00:34:42;;;;;;;;;;;10.40;99.90;;;;;;8433475;28;19924;-71
2022/01/03 00:38:43;;;;;;;;;;;10.40;99.90;;;;;;8428544;28;19931;-71
2022/01/03 00:42:45;;;;;;;;;;;10.40;99.90;;;;;;8407051;28;20488;-71
2022/01/03 00:46:46;;;;;;;;;;;10.40;99.90;;;;;;8426771;28;19959;-71
2022/01/03 00:50:49;;;;;;;;;;;10.30;99.90;;;;;;8403790;28;20038;-71
2022/01/03 00:54:50;;;;;;;;;;;10.30;99.90;;;;;;8408010;28;19924;-71
2022/01/03 00:58:54;;;;;;;;;;;10.30;99.90;;;;;;8400163;28;19924;-71
2022/01/03 01:03:00;;;;;;;;;;;10.30;99.90;;;;;;8394495;28;19931;-71
2022/01/03 01:07:05;;;;;;;;;;;10.20;99.90;;;;;;8423033;28;20451;-71
2022/01/03 01:11:08;;;;;;;;;;;10.20;99.90;;;;;;8420814;28;19968;-71
2022/01/03 01:15:09;;;;;;;;;;;10.20;99.90;;;;;;8418001;28;19974;-71
2022/01/03 01:19:11;;;;;;;;;;;10.20;99.90;;;;;;8426632;28;20287;-71
2022/01/03 01:23:14;;;;;;;;;;;10.10;99.90;;;;;;8407267;28;19928;-71
2022/01/03 01:31:44;;;;;;;;;;;10.10;99.90;;;;;;8417289;28;19928;-71
2022/01/03 01:35:48;;;;;;;;;;;10.00;99.90;;;;;;8425693;28;19924;-72
2022/01/03 01:39:51;;;;;;;;;;;10.00;99.90;;;;;;8408203;28;19924;-70
2022/01/03 01:43:56;;;;;;;;;;;10.00;99.90;;;;;;8416383;28;19924;-71
2022/01/03 01:47:58;;;;;;;;;;;10.00;99.90;;;;;;8423775;28;20358;-71
2022/01/03 01:52:01;;;;;;;;;;;9.90;99.90;;;;;;8422014;28;19969;-71
2022/01/03 01:56:04;;;;;;;;;;;9.90;99.90;;;;;;8422308;28;19971;-70
2022/01/03 02:00:05;;;;;;;;;;;9.90;99.90;;;;;;8420436;28;20288;-71
2022/01/03 02:04:17;;;;;;;;;;;9.90;99.90;;;;;;8408484;28;19928;-70
2022/01/03 02:08:26;;;;;;;;;;;9.90;99.90;;;;;;8404911;28;20401;-71
2022/01/03 02:12:30;;;;;;;;;;;9.90;99.90;;;;;;8404454;28;19991;-71
2022/01/03 02:16:32;;;;;;;;;;;9.80;99.90;;;;;;8408136;28;20038;-71
2022/01/03 02:20:34;;;;;;;;;;;9.80;99.90;;;;;;8409780;28;20299;-71
2022/01/03 02:24:35;;;;;;;;;;;9.80;99.90;;;;;;8426729;28;19924;-71
2022/01/03 02:28:37;;;;;;;;;;;9.80;99.90;;;;;;8412516;28;19928;-71
2022/01/03 02:32:39;;;;;;;;;;;9.90;99.90;;;;;;8430611;28;19994;-71
2022/01/03 02:36:43;;;;;;;;;;;9.80;99.90;;;;;;8429210;28;19924;-71
2022/01/03 02:40:44;;;;;;;;;;;9.90;99.90;;;;;;8417072;28;19973;-72
2022/01/03 02:44:46;;;;;;;;;;;9.90;99.90;;;;;;8426286;28;19978;-71
2022/01/03 02:48:48;;;;;;;;;;;9.90;99.90;;;;;;8431274;28;20513;-71
2022/01/03 02:52:50;;;;;;;;;;;9.80;99.90;;;;;;8430811;28;19925;-71
2022/01/03 02:56:52;;;;;;;;;;;9.80;99.90;;;;;;8424023;28;19932;-71
2022/01/03 03:00:53;;;;;;;;;;;9.80;99.90;;;;;;8407007;28;19924;-70
2022/01/03 03:04:56;;;;;;;;;;;9.80;99.90;;;;;;8420755;28;19975;-71
2022/01/03 03:08:58;;;;;;;;;;;9.80;99.90;;;;;;8426404;28;20313;-71
2022/01/03 03:13:00;;;;;;;;;;;9.70;99.90;;;;;;8423556;28;19932;-70
2022/01/03 03:17:02;;;;;;;;;;;9.70;99.90;;;;;;8427963;28;19967;-71
2022/01/03 03:21:03;;;;;;;;;;;9.70;99.90;;;;;;8428258;28;19980;-71
2022/01/03 03:25:05;;;;;;;;;;;9.70;99.90;;;;;;8428190;28;20372;-71
2022/01/03 03:29:07;;;;;;;;;;;9.70;99.90;;;;;;8413018;28;19924;-71
2022/01/03 03:33:11;;;;;;;;;;;9.70;99.90;;;;;;8411427;28;19928;-71
2022/01/03 03:37:13;;;;;;;;;;;9.80;99.90;;;;;;8420573;28;19924;-71
2022/01/03 03:41:14;;;;;;;;;;;9.90;99.90;;;;;;8429869;28;19924;-70
2022/01/03 03:45:16;;;;;;;;;;;9.90;99.90;;;;;;8428965;28;19979;-71
2022/01/03 03:49:18;;;;;;;;;;;9.90;99.90;;;;;;8429688;28;20393;-71
2022/01/03 03:53:20;;;;;;;;;;;10.00;99.90;;;;;;8408324;28;19924;-71
2022/01/03 03:57:22;;;;;;;;;;;10.10;99.90;;;;;;8428586;28;20327;-71
2022/01/03 04:01:24;;;;;;;;;;;10.10;99.90;;;;;;8405275;28;19928;-70
2022/01/03 04:05:25;;;;;;;;;;;10.20;99.90;;;;;;8428773;28;20435;-71
2022/01/03 04:09:27;;;;;;;;;;;10.20;99.90;;;;;;8429472;28;19924;-71
2022/01/03 04:13:29;;;;;;;;;;;10.30;99.90;;;;;;8406295;28;19935;-71
2022/01/03 04:17:30;;;;;;;;;;;10.30;99.90;;;;;;8423552;28;19924;-71
2022/01/03 04:21:32;;;;;;;;;;;10.30;99.90;;;;;;8426394;28;19924;-71
2022/01/03 04:25:33;;;;;;;;;;;10.30;99.90;;;;;;8424976;28;19968;-71
2022/01/03 04:29:35;;;;;;;;;;;10.30;99.90;;;;;;8428537;28;19924;-71
2022/01/03 04:33:37;;;;;;;;;;;10.30;99.90;;;;;;8410615;28;19935;-70
2022/01/03 04:37:38;;;;;;;;;;;10.30;99.90;;;;;;8410744;28;19924;-71
2022/01/03 04:41:40;;;;;;;;;;;10.30;99.90;;;;;;8422935;28;19931;-71
2022/01/03 04:45:42;;;;;;;;;;;10.20;99.90;;;;;;8427887;28;19935;-70
2022/01/03 04:49:43;;;;;;;;;;;10.20;99.90;;;;;;8406364;28;19924;-71
2022/01/03 04:53:45;;;;;;;;;;;10.20;99.90;;;;;;8415937;28;19924;-71
2022/01/03 04:57:47;;;;;;;;;;;10.20;99.90;;;;;;8427867;28;19931;-71
2022/01/03 05:01:48;;;;;;;;;;;10.20;99.90;;;;;;8416481;28;19936;-71
2022/01/03 05:05:50;;;;;;;;;;;10.20;99.90;;;;;;8424773;28;19924;-71
2022/01/03 05:09:52;;;;;;;;;;;10.30;99.90;;;;;;8425826;28;19924;-71
2022/01/03 05:13:54;;;;;;;;;;;10.20;99.90;;;;;;8408476;28;19932;-70
2022/01/03 05:17:55;;;;;;;;;;;10.20;99.90;;;;;;8409609;28;20287;-70
2022/01/03 05:21:57;;;;;;;;;;;10.20;99.90;;;;;;8405348;28;20344;-71
2022/01/03 05:25:58;;;;;;;;;;;10.20;99.90;;;;;;8422749;28;19978;-71
2022/01/03 05:30:01;;;;;;;;;;;10.10;99.90;;;;;;8409578;28;19982;-71
2022/01/03 05:34:03;;;;;;;;;;;10.10;99.90;;;;;;8425405;28;20283;-71
2022/01/03 05:38:04;;;;;;;;;;;10.10;99.90;;;;;;8402771;28;20276;-70
2022/01/03 05:42:06;;;;;;;;;;;10.10;99.90;;;;;;8426034;28;20348;-70
2022/01/03 05:46:08;;;;;;;;;;;10.10;99.90;;;;;;8420539;28;19980;-70
2022/01/03 05:50:09;;;;;;;;;;;10.10;99.90;;;;;;8422943;28;19984;-71
2022/01/03 05:54:11;;;;;;;;;;;10.10;99.90;;;;;;8417524;28;19924;-70
2022/01/03 05:58:13;;;;;;;;;;;10.10;99.90;;;;;;8426855;28;19924;-71
2022/01/03 06:02:15;;;;;;;;;;;10.10;99.90;;;;;;8405970;28;19932;-70
2022/01/03 06:06:20;;;;;;;;;;;10.20;99.90;;;;;;8419111;28;19924;-70
2022/01/03 06:10:22;;;;;;;;;;;10.10;99.90;;;;;;8422340;28;19972;-71
2022/01/03 06:14:24;;;;;;;;;;;10.20;99.90;;;;;;8404172;28;19933;-70
2022/01/03 06:18:25;;;;;;;;;;;10.10;99.90;;;;;;8424903;28;19924;-71
2022/01/03 06:22:27;;;;;;;;;;;10.20;99.90;;;;;;8418128;28;19924;-71
2022/01/03 06:26:29;;;;;;;;;;;10.10;99.90;;;;;;8420569;28;19928;-71
2022/01/03 06:30:30;;;;;;;;;;;10.20;99.90;;;;;;8420289;28;20240;-70
2022/01/03 06:34:32;;;;;;;;;;;10.10;99.90;;;;;;8421192;28;19924;-71
2022/01/03 06:38:34;;;;;;;;;;;10.10;99.90;;;;;;8420073;28;19936;-71
2022/01/03 06:42:35;;;;;;;;;;;10.10;99.90;;;;;;8422258;28;20284;-70
2022/01/03 06:46:37;;;;;;;;;;;10.20;99.90;;;;;;8390667;28;19975;-71
2022/01/03 06:50:39;;;;;;;;;;;10.10;99.90;;;;;;8386306;28;19928;-70
2022/01/03 06:54:40;;;;;;;;;;;10.10;99.90;;;;;;8378840;28;19963;-71
2022/01/03 06:58:42;;;;;;;;;;;10.10;99.90;;;;;;8384151;28;19932;-71
2022/01/03 07:02:44;;;;;;;;;;;10.10;99.90;;;;;;8391743;28;19973;-71
2022/01/03 07:06:46;;;;;;;;;;;10.10;99.90;;;;;;8395113;28;19990;-70
2022/01/03 07:10:48;;;;;;;;;;;10.00;99.90;;;;;;8395645;28;19967;-70
2022/01/03 07:18:58;;;;;;;;;;;10.00;99.90;;;;;;8397233;28;19995;-71
2022/01/03 07:23:00;;;;;;;;;;;10.00;99.90;;;;;;8393960;28;19928;-70
2022/01/03 07:27:02;;;;;;;;;;;10.10;99.90;;;;;;8395785;28;19936;-71
2022/01/03 07:31:04;;;;;;;;;;;10.10;99.90;;;;;;8391046;28;20276;-70
2022/01/03 07:35:06;;;;;;;;;;;10.10;99.90;;;;;;8396016;28;19951;-71
2022/01/03 07:39:08;;;;;;;;;;;10.10;99.90;;;;;;8387394;28;19936;-71
2022/01/03 07:43:09;;;;;;;;;;;10.10;99.90;;;;;;8389204;28;20267;-71
2022/01/03 07:47:11;;;;;;;;;;;10.20;99.90;;;;;;8393300;28;19924;-71
2022/01/03 07:51:12;;;;;;;;;;;10.20;99.90;;;;;;8387086;28;20001;-71
2022/01/03 07:55:15;;;;;;;;;;;10.20;99.90;;;;;;8406505;28;20015;-71
2022/01/03 07:59:17;;;;;;;;;;;10.20;99.90;;;;;;8394889;28;19925;-71
2022/01/03 08:03:22;;;;;;;;;;;10.20;99.90;;;;;;8387492;28;19932;-71
2022/01/03 08:07:38;;;;;;;;;;;10.20;99.90;;;;;;8405341;28;20708;-70
2022/01/03 08:11:39;;;;;;;;;;;10.20;99.90;;;;;;8402738;28;19932;-70
2022/01/03 08:15:42;;;;;;;;;;;10.20;99.90;;;;;;8385152;28;19928;-72
2022/01/03 08:19:43;;;;;;;;;;;10.20;99.90;;;;;;8406574;28;19925;-71
2022/01/03 08:23:45;;;;;;;;;;;10.20;99.90;;;;;;8388314;28;20321;-71
2022/01/03 08:27:46;;;;;;;;;;;10.20;99.90;;;;;;8405471;28;19952;-71
2022/01/03 08:31:48;;;;;;;;;;;10.20;99.90;;;;;;8401796;28;19968;-71
2022/01/03 08:35:50;;;;;;;;;;;10.30;99.90;;;;;;8386501;28;19932;-71
2022/01/03 08:39:52;;;;;;;;;;;10.20;99.90;;;;;;8403480;28;19930;-71
2022/01/03 08:43:54;;;;;;;;;;;10.30;99.90;;;;;;8394341;28;19935;-71
2022/01/03 08:47:55;;;;;;;;;;;10.30;99.90;;;;;;8387313;28;19948;-71
2022/01/03 08:51:57;;;;;;;;;;;10.30;99.90;;;;;;8400228;28;20671;-70
2022/01/03 08:55:59;;;;;;;;;;;10.30;99.90;;;;;;8384645;28;19976;-71
2022/01/03 09:00:00;;;;;;;;;;;10.30;99.90;;;;;;8391363;28;19974;-71
2022/01/03 09:04:02;;;;;;;;;;;10.30;99.90;;;;;;8405647;28;19928;-71
2022/01/03 09:08:04;;;;;;;;;;;10.30;99.90;;;;;;8405483;28;19924;-71
2022/01/03 09:12:07;;;;;;;;;;;10.30;99.90;;;;;;8398814;28;19931;-71
2022/01/03 09:16:08;;;;;;;;;;;10.30;99.90;;;;;;8403791;28;19967;-71
2022/01/03 09:20:10;;;;;;;;;;;10.30;99.90;;;;;;8404365;28;19929;-71
2022/01/03 09:24:28;;;;;;;;;;;10.30;99.90;;;;;;8384271;28;19964;-71
2022/01/03 09:28:49;;;;;;;;;;;10.20;99.90;;;;;;8394098;28;19931;-71
2022/01/03 09:32:51;;;;;;;;;;;10.20;99.90;;;;;;8380070;28;19955;-71
2022/01/03 09:36:53;;;;;;;;;;;10.20;99.90;;;;;;8392679;28;19924;-71
2022/01/03 09:40:56;;;;;;;;;;;10.20;99.90;;;;;;8388179;28;20011;-71
2022/01/03 09:45:02;;;;;;;;;;;10.20;99.90;;;;;;8380596;28;19933;-71
2022/01/03 09:49:05;;;;;;;;;;;10.20;99.90;;;;;;8382303;28;19936;-71
2022/01/03 09:53:08;;;;;;;;;;;10.20;99.90;;;;;;8383164;28;20047;-70
2022/01/03 09:57:12;;;;;;;;;;;10.20;99.90;;;;;;8386268;28;19925;-70
2022/01/03 10:01:13;;;;;;;;;;;10.20;99.90;;;;;;8388179;28;20038;-71
2022/01/03 10:05:16;;;;;;;;;;;10.20;99.90;;;;;;8379239;28;19959;-71
2022/01/03 10:09:19;;;;;;;;;;;10.30;99.90;;;;;;8390156;28;19924;-71
2022/01/03 10:13:21;;;;;;;;;;;10.30;99.90;;;;;;8377020;28;20068;-71
2022/01/03 10:17:22;;;;;;;;;;;10.30;99.90;;;;;;8384514;28;19924;-71
2022/01/03 10:21:41;;;;;;;;;;;10.30;99.90;;;;;;8384458;28;19929;-70
2022/01/03 10:25:43;;;;;;;;;;;10.40;99.90;;;;;;8382926;28;19924;-71
2022/01/03 10:29:56;;;;;;;;;;;10.60;99.90;;;;;;8371116;28;19928;-71
2022/01/03 10:34:04;;;;;;;;;;;10.80;99.90;;;;;;8387689;28;19924;-71
2022/01/03 10:38:10;;;;;;;;;;;11.10;99.90;;;;;;8387930;28;19936;-71
2022/01/03 10:42:12;;;;;;;;;;;11.20;99.90;;;;;;8389016;28;19928;-71
2022/01/03 10:46:30;;;;;;;;;;;11.20;99.90;;;;;;8375215;28;19978;-71
2022/01/03 10:50:43;;;;;;;;;;;11.10;99.90;;;;;;8391298;28;19931;-71
2022/01/03 10:55:04;;;;;;;;;;;11.00;99.90;;;;;;8387117;28;19924;-70
2022/01/03 10:59:14;;;;;;;;;;;11.00;99.90;;;;;;8389565;28;20045;-71
2022/01/03 11:11:39;;;;;;;;;;;11.00;99.90;;;;;;8384508;28;19925;-71
2022/01/03 11:15:57;;;;;;;;;;;11.00;99.90;;;;;;8397352;28;20249;-70
2022/01/03 11:19:59;;;;;;;;;;;11.20;99.90;;;;;;8393790;28;19924;-72
2022/01/03 11:24:04;;;;;;;;;;;11.60;99.90;;;;;;8394601;28;19991;-71
2022/01/03 11:28:06;;;;;;;;;;;11.80;99.90;;;;;;8401641;28;19924;-71
2022/01/03 11:32:08;;;;;;;;;;;11.80;99.90;;;;;;8392843;28;19978;-71
2022/01/03 11:36:09;;;;;;;;;;;11.80;99.90;;;;;;8394809;28;19924;-71
2022/01/03 11:40:12;;;;;;;;;;;11.80;99.90;;;;;;8396334;28;19936;-71
2022/01/03 11:44:15;;;;;;;;;;;11.90;99.90;;;;;;8396924;28;19981;-71
2022/01/03 11:48:17;;;;;;;;;;;11.90;99.90;;;;;;8404579;28;19946;-72
2022/01/03 11:52:19;;;;;;;;;;;12.10;99.90;;;;;;8399973;28;19961;-71
2022/01/03 11:56:23;;;;;;;;;;;12.20;99.90;;;;;;8398570;28;19932;-71
2022/01/03 12:04:55;;;;;;;;;;;12.10;99.90;;;;;;8394505;28;19947;-70
2022/01/03 12:08:58;;;;;;;;;;;11.70;99.90;;;;;;8385082;28;19924;-72
2022/01/03 12:13:00;;;;;;;;;;;11.40;99.90;;;;;;8379131;28;20499;-70
2022/01/03 12:17:03;;;;;;;;;;;11.40;99.90;;;;;;8384774;28;24619;-71
2022/01/03 12:21:05;;;;;;;;;;;11.80;99.90;;;;;;8401817;28;19975;-71
2022/01/03 12:25:07;;;;;;;;;;;12.10;99.90;;;;;;8398731;28;20015;-71
2022/01/03 12:29:09;;;;;;;;;;;11.90;99.90;;;;;;8404139;28;19978;-71
2022/01/03 12:33:12;;;;;;;;;;;11.60;99.90;;;;;;8400851;28;20426;-70
2022/01/03 12:37:17;;;;;;;;;;;11.30;99.90;;;;;;8403774;28;19983;-71
2022/01/03 12:41:37;;;;;;;;;;;11.20;99.90;;;;;;8391449;28;19956;-71
2022/01/03 12:45:46;;;;;;;;;;;11.10;99.90;;;;;;8389087;28;19928;-70
2022/01/03 12:50:07;;;;;;;;;;;11.00;99.90;;;;;;8400545;28;20375;-69
2022/01/03 12:54:10;;;;;;;;;;;11.00;99.90;;;;;;8382992;28;19970;-70
2022/01/03 12:58:14;;;;;;;;;;;10.90;99.90;;;;;;8400570;28;19948;-70
2022/01/03 13:02:23;;;;;;;;;;;10.80;99.90;;;;;;8401617;28;19924;-70
2022/01/03 13:06:24;;;;;;;;;;;10.80;99.90;;;;;;8398767;28;19970;-69
2022/01/03 13:10:26;;;;;;;;;;;10.80;99.90;;;;;;8382466;28;20022;-69
2022/01/03 13:14:28;;;;;;;;;;;10.70;99.90;;;;;;8399888;28;20015;-69
2022/01/03 13:18:30;;;;;;;;;;;10.70;99.90;;;;;;8386900;28;19990;-70
2022/01/03 13:22:32;;;;;;;;;;;10.70;99.90;;;;;;8394593;28;20008;-70
2022/01/03 13:26:49;;;;;;;;;;;10.70;99.90;;;;;;8395118;28;19958;-70
2022/01/03 13:31:00;;;;;;;;;;;10.60;99.90;;;;;;8392511;28;20023;-70
2022/01/03 13:35:03;;;;;;;;;;;10.60;99.90;;;;;;8392431;28;20597;-70
2022/01/03 13:39:06;;;;;;;;;;;10.70;99.90;;;;;;8381005;28;19928;-70
2022/01/03 13:43:13;;;;;;;;;;;10.70;99.90;;;;;;8393070;28;20328;-70
2022/01/03 13:51:36;;;;;;;;;;;10.70;99.90;;;;;;8387437;28;19963;-69
2022/01/03 13:55:38;;;;;;;;;;;10.70;99.90;;;;;;8390011;28;19963;-69
2022/01/03 13:59:41;;;;;;;;;;;10.70;99.90;;;;;;8396252;28;19932;-70
2022/01/03 14:03:43;;;;;;;;;;;10.60;99.90;;;;;;8379651;28;20026;-70
2022/01/03 14:07:55;;;;;;;;;;;10.60;99.90;;;;;;8376255;28;20008;-70
2022/01/03 14:12:07;;;;;;;;;;;10.60;99.90;;;;;;8389619;28;19924;-70
2022/01/03 14:16:10;;;;;;;;;;;10.60;99.90;;;;;;8396906;28;20018;-69
2022/01/03 14:20:12;;;;;;;;;;;10.60;99.90;;;;;;8395917;28;19933;-70
2022/01/03 14:24:15;;;;;;;;;;;10.60;99.90;;;;;;8399356;28;19966;-70
2022/01/03 14:28:25;;;;;;;;;;;10.60;99.90;;;;;;8385398;28;19932;-70
2022/01/03 14:32:36;;;;;;;;;;;10.60;99.90;;;;;;8402019;28;19928;-70
2022/01/03 14:36:39;;;;;;;;;;;10.60;99.90;;;;;;8405887;28;19945;-70
2022/01/03 14:40:45;;;;;;;;;;;10.60;99.90;;;;;;8397668;28;19982;-69
2022/01/03 14:44:46;;;;;;;;;;;10.60;99.90;;;;;;8396066;28;20355;-70
2022/01/03 14:48:52;;;;;;;;;;;10.60;99.90;;;;;;8400545;28;19939;-70
2022/01/03 14:52:56;;;;;;;;;;;10.50;99.90;;;;;;8392261;28;20403;-69
2022/01/03 14:57:14;;;;;;;;;;;10.50;99.90;;;;;;8368625;28;19964;-69
2022/01/03 15:01:15;;;;;;;;;;;10.50;99.90;;;;;;8374830;28;19962;-69
2022/01/03 15:05:17;;;;;;;;;;;10.40;99.90;;;;;;8382242;28;19924;-69
2022/01/03 15:09:18;;;;;;;;;;;10.40;99.90;;;;;;8382676;28;20301;-70
2022/01/03 15:13:38;;;;;;;;;;;10.50;99.90;;;;;;8392231;28;20030;-70
2022/01/03 15:17:40;;;;;;;;;;;10.40;99.90;;;;;;8383237;28;19928;-70
2022/01/03 15:21:43;;;;;;;;;;;10.40;99.90;;;;;;8382685;28;19936;-69
2022/01/03 15:25:45;;;;;;;;;;;10.40;99.90;;;;;;8381769;28;20027;-71
2022/01/03 15:29:47;;;;;;;;;;;10.40;99.90;;;;;;8382998;28;19939;-70
2022/01/03 15:33:49;;;;;;;;;;;10.30;99.90;;;;;;8380366;28;20019;-70
2022/01/03 15:37:51;;;;;;;;;;;10.30;99.90;;;;;;8380960;28;19979;-71
2022/01/03 15:41:52;;;;;;;;;;;10.20;99.90;;;;;;8380885;28;20381;-70
2022/01/03 15:45:55;;;;;;;;;;;10.10;99.90;;;;;;8379508;28;19924;-70
2022/01/03 15:49:57;;;;;;;;;;;10.10;99.90;;;;;;8381000;28;20298;-70
2022/01/03 15:54:02;;;;;;;;;;;10.10;99.90;;;;;;8379690;28;20320;-70
2022/01/03 15:58:04;;;;;;;;;;;10.00;99.90;;;;;;8382070;28;19963;-70
2022/01/03 16:02:06;;;;;;;;;;;9.90;99.90;;;;;;8365561;28;19971;-70
2022/01/03 16:06:08;;;;;;;;;;;9.90;99.90;;;;;;8365354;28;19963;-70
2022/01/03 16:10:10;;;;;;;;;;;9.90;99.90;;;;;;8381010;28;20700;-70
2022/01/03 16:14:11;;;;;;;;;;;9.90;99.90;;;;;;8391338;28;19931;-70
2022/01/03 16:18:13;;;;;;;;;;;9.90;99.90;;;;;;8392465;28;20391;-71
2022/01/03 16:22:15;;;;;;;;;;;9.90;99.90;;;;;;8390720;28;19963;-70
2022/01/03 16:26:16;;;;;;;;;;;9.90;99.90;;;;;;8368397;28;19960;-70
2022/01/03 16:30:18;;;;;;;;;;;9.90;99.90;;;;;;8383792;28;19948;-69
2022/01/03 16:34:20;;;;;;;;;;;9.90;99.90;;;;;;8384172;28;19931;-71
2022/01/03 16:38:22;;;;;;;;;;;9.90;99.90;;;;;;8365459;28;19943;-70
2022/01/03 16:42:24;;;;;;;;;;;9.80;99.90;;;;;;8381715;28;19928;-70
2022/01/03 16:46:25;;;;;;;;;;;9.80;99.90;;;;;;8382100;28;21291;-70
2022/01/03 16:50:28;;;;;;;;;;;9.90;99.90;;;;;;8384981;28;20478;-70
2022/01/03 16:54:30;;;;;;;;;;;9.80;99.90;;;;;;8386557;28;19993;-70
2022/01/03 16:58:32;;;;;;;;;;;9.70;99.90;;;;;;8377241;28;19927;-70
2022/01/03 17:02:34;;;;;;;;;;;9.70;99.90;;;;;;8387079;28;19924;-70
2022/01/03 17:06:35;;;;;;;;;;;9.60;99.90;;;;;;8386947;28;19924;-70
2022/01/03 17:10:37;;;;;;;;;;;9.60;99.90;;;;;;8371879;28;19956;-70
2022/01/03 17:14:39;;;;;;;;;;;9.60;99.90;;;;;;8387236;28;19999;-70
2022/01/03 17:18:40;;;;;;;;;;;9.60;99.90;;;;;;8364284;28;19970;-70
2022/01/03 17:22:42;;;;;;;;;;;9.60;99.90;;;;;;8383796;28;19951;-70
2022/01/03 17:26:44;;;;;;;;;;;9.60;99.90;;;;;;8382577;28;19978;-70
2022/01/03 17:31:05;;;;;;;;;;;9.60;99.90;;;;;;8384334;28;19939;-70
2022/01/03 17:35:07;;;;;;;;;;;9.60;99.90;;;;;;8381771;28;20402;-70
2022/01/03 17:39:08;;;;;;;;;;;9.60;99.90;;;;;;8376967;28;19968;-70
2022/01/03 17:43:12;;;;;;;;;;;9.60;99.90;;;;;;8380825;28;20364;-70
2022/01/03 17:47:16;;;;;;;;;;;9.60;99.90;;;;;;8383337;28;19979;-70
2022/01/03 17:51:17;;;;;;;;;;;9.60;99.90;;;;;;8363713;28;20388;-70
2022/01/03 17:55:19;;;;;;;;;;;9.60;99.90;;;;;;8379372;28;19925;-70
2022/01/03 17:59:21;;;;;;;;;;;9.50;99.90;;;;;;8365218;28;19931;-70
2022/01/03 18:03:22;;;;;;;;;;;9.50;99.90;;;;;;8386043;28;20031;-70
2022/01/03 18:07:25;;;;;;;;;;;9.40;99.90;;;;;;8377369;28;19928;-70
2022/01/03 18:11:27;;;;;;;;;;;9.40;99.90;;;;;;8375642;28;19928;-70
2022/01/03 18:15:29;;;;;;;;;;;9.40;99.90;;;;;;8381557;28;19924;-71
2022/01/03 18:19:31;;;;;;;;;;;9.40;99.90;;;;;;8387442;28;20279;-71
2022/01/03 18:23:32;;;;;;;;;;;9.30;99.90;;;;;;8381972;28;19964;-70
2022/01/03 18:27:36;;;;;;;;;;;9.30;99.90;;;;;;8385521;28;19943;-70
2022/01/03 18:31:39;;;;;;;;;;;9.30;99.90;;;;;;8384739;28;19974;-70
2022/01/03 18:35:42;;;;;;;;;;;9.30;99.90;;;;;;8384435;28;20436;-70
2022/01/03 18:39:44;;;;;;;;;;;9.30;99.90;;;;;;8379144;28;20038;-71
2022/01/03 18:43:45;;;;;;;;;;;9.30;99.90;;;;;;8370086;28;19920;-70
2022/01/03 18:47:47;;;;;;;;;;;9.30;99.90;;;;;;8369830;28;19960;-70
2022/01/03 18:51:49;;;;;;;;;;;9.30;99.90;;;;;;8386026;28;20395;-70
2022/01/03 18:55:50;;;;;;;;;;;9.20;99.90;;;;;;8368553;28;20283;-70
2022/01/03 18:59:52;;;;;;;;;;;9.20;99.90;;;;;;8391940;28;19925;-70
2022/01/03 19:03:53;;;;;;;;;;;9.30;99.90;;;;;;8380406;28;19920;-71
2022/01/03 19:07:55;;;;;;;;;;;9.20;99.90;;;;;;8387340;28;19971;-70
2022/01/03 19:11:57;;;;;;;;;;;9.20;99.90;;;;;;8374273;28;20345;-70
2022/01/03 19:15:59;;;;;;;;;;;9.30;99.90;;;;;;8386458;28;20336;-70
2022/01/03 19:20:01;;;;;;;;;;;9.20;99.90;;;;;;8391420;28;19963;-70
2022/01/03 19:24:03;;;;;;;;;;;9.20;99.90;;;;;;8371155;28;19971;-71
2022/01/03 19:28:09;;;;;;;;;;;9.20;99.90;;;;;;8390418;28;19943;-70
2022/01/03 19:32:14;;;;;;;;;;;9.20;99.90;;;;;;8392938;28;19924;-70
2022/01/03 19:40:36;;;;;;;;;;;9.20;99.90;;;;;;8392572;28;19969;-70
2022/01/03 19:44:38;;;;;;;;;;;9.30;99.90;;;;;;8387795;28;19935;-70
2022/01/03 19:48:40;;;;;;;;;;;9.30;99.90;;;;;;8384703;28;20660;-70
2022/01/03 19:52:42;;;;;;;;;;;9.40;99.90;;;;;;8369810;28;20407;-70
2022/01/03 19:56:44;;;;;;;;;;;9.40;99.90;;;;;;8370980;28;20404;-70
2022/01/03 20:00:46;;;;;;;;;;;9.40;99.90;;;;;;8374003;28;19920;-70
2022/01/03 20:04:52;;;;;;;;;;;9.40;99.90;;;;;;8386276;28;19932;-70
2022/01/03 20:08:53;;;;;;;;;;;9.40;99.90;;;;;;8382538;28;19935;-70
2022/01/03 20:12:56;;;;;;;;;;;9.40;99.90;;;;;;8384934;28;19924;-70
2022/01/03 20:16:57;;;;;;;;;;;9.40;99.90;;;;;;8381971;28;20330;-70
2022/01/03 20:20:59;;;;;;;;;;;9.40;99.90;;;;;;8368752;28;19982;-70
2022/01/03 20:25:04;;;;;;;;;;;9.40;99.90;;;;;;8387923;28;19932;-70
2022/01/03 20:29:05;;;;;;;;;;;9.40;99.90;;;;;;8401322;28;19931;-70
2022/01/03 20:33:07;;;;;;;;;;;9.40;99.90;;;;;;8387639;28;20304;-70
2022/01/03 20:37:09;;;;;;;;;;;9.40;99.90;;;;;;8391954;28;19946;-70
2022/01/03 20:41:11;;;;;;;;;;;9.40;99.90;;;;;;8391216;28;19924;-70
2022/01/03 20:45:13;;;;;;;;;;;9.40;99.90;;;;;;8390497;28;19920;-70
2022/01/03 20:49:15;;;;;;;;;;;9.40;99.90;;;;;;8386322;28;20303;-70
2022/01/03 20:53:17;;;;;;;;;;;9.50;99.90;;;;;;8385397;28;19947;-70
2022/01/03 20:57:18;;;;;;;;;;;9.50;99.90;;;;;;8388686;28;19920;-70
2022/01/03 21:01:21;;;;;;;;;;;9.50;99.90;;;;;;8385356;28;20023;-70
2022/01/03 21:05:29;;;;;;;;;;;9.50;99.90;;;;;;8383620;28;19928;-70
2022/01/03 21:09:31;;;;;;;;;;;9.60;99.90;;;;;;8382393;28;19924;-70
2022/01/03 21:13:33;;;;;;;;;;;9.60;99.90;;;;;;8386265;28;19924;-70
2022/01/03 21:17:35;;;;;;;;;;;9.60;99.90;;;;;;8386034;28;20279;-70
2022/01/03 21:21:36;;;;;;;;;;;9.60;99.90;;;;;;8385088;28;19932;-70
2022/01/03 21:25:38;;;;;;;;;;;9.50;99.90;;;;;;8384813;28;20012;-70
2022/01/03 21:29:39;;;;;;;;;;;9.50;99.90;;;;;;8367554;28;19987;-70
2022/01/03 21:33:41;;;;;;;;;;;9.50;99.90;;;;;;8389172;28;19924;-70
2022/01/03 21:37:43;;;;;;;;;;;9.50;99.90;;;;;;8387564;28;20007;-70
2022/01/03 21:41:45;;;;;;;;;;;9.50;99.90;;;;;;8386922;28;19928;-70
2022/01/03 21:45:47;;;;;;;;;;;9.50;99.90;;;;;;8384763;28;19956;-70
2022/01/03 21:49:50;;;;;;;;;;;9.50;99.90;;;;;;8383287;28;21343;-70
2022/01/03 21:53:53;;;;;;;;;;;9.50;99.90;;;;;;8390343;28;19931;-70
2022/01/03 21:57:55;;;;;;;;;;;9.50;99.90;;;;;;8385380;28;20430;-70
2022/01/03 22:01:57;;;;;;;;;;;9.50;99.90;;;;;;8389051;28;19935;-70
2022/01/03 22:05:58;;;;;;;;;;;9.50;99.90;;;;;;8397937;28;19932;-70
2022/01/03 22:10:00;;;;;;;;;;;9.50;99.90;;;;;;8399519;28;20379;-70
2022/01/03 22:14:02;;;;;;;;;;;9.50;99.90;;;;;;8398514;28;19928;-70
2022/01/03 22:18:03;;;;;;;;;;;9.60;99.90;;;;;;8373145;28;19928;-70
2022/01/03 22:22:07;;;;;;;;;;;9.50;99.90;;;;;;8399444;28;19959;-70
2022/01/03 22:26:09;;;;;;;;;;;9.50;99.90;;;;;;8399681;28;20019;-70
2022/01/03 22:30:11;;;;;;;;;;;9.50;99.90;;;;;;8405256;28;20330;-70
2022/01/03 22:34:13;;;;;;;;;;;9.40;99.90;;;;;;8406020;28;20333;-70
2022/01/03 22:38:15;;;;;;;;;;;9.40;99.90;;;;;;8400921;28;20384;-70
2022/01/03 22:42:16;;;;;;;;;;;9.30;99.90;;;;;;8385006;28;20366;-70
2022/01/03 22:46:18;;;;;;;;;;;9.30;99.90;;;;;;8379316;28;20383;-70
2022/01/03 22:50:20;;;;;;;;;;;9.30;99.90;;;;;;8409975;28;20321;-70
2022/01/03 22:54:21;;;;;;;;;;;9.30;99.90;;;;;;8383732;28;20182;-70
2022/01/03 22:58:23;;;;;;;;;;;9.30;99.90;;;;;;8405107;28;20345;-70
2022/01/03 23:02:25;;;;;;;;;;;9.20;99.90;;;;;;8410785;28;19932;-70
2022/01/03 23:06:27;;;;;;;;;;;9.20;99.90;;;;;;8418119;28;19924;-70
2022/01/03 23:10:28;;;;;;;;;;;9.20;99.90;;;;;;8402971;28;19924;-70
2022/01/03 23:14:30;;;;;;;;;;;9.20;99.90;;;;;;8395758;28;19928;-70
2022/01/03 23:18:32;;;;;;;;;;;9.20;99.90;;;;;;8414345;28;19924;-71
2022/01/03 23:22:34;;;;;;;;;;;9.10;99.90;;;;;;8405643;28;19928;-70
2022/01/03 23:26:36;;;;;;;;;;;9.10;99.90;;;;;;8411268;28;19926;-71
2022/01/03 23:30:38;;;;;;;;;;;9.10;99.90;;;;;;8408792;28;19924;-71
2022/01/03 23:34:39;;;;;;;;;;;9.20;99.90;;;;;;8412462;28;19931;-70
2022/01/03 23:38:41;;;;;;;;;;;9.10;99.90;;;;;;8413940;28;19932;-70
2022/01/03 23:42:43;;;;;;;;;;;9.10;99.90;;;;;;8390470;28;19939;-70
2022/01/03 23:46:50;;;;;;;;;;;9.20;99.90;;;;;;8410439;28;19968;-71
2022/01/03 23:50:55;;;;;;;;;;;9.20;99.90;;;;;;8394389;28;19924;-70
2022/01/03 23:54:58;;;;;;;;;;;9.20;99.90;;;;;;8388412;28;19929;-70
2022/01/03 23:59:00;;;;;;;;;;;9.20;99.90;;;;;;8391213;28;20380;-70
